Time;durP1;ratioP1;P1;durP2;ratioP2;P2;SDS_P1;SDS_P2;PMS_P1;PMS_P2;Temp;Humidity;BMP_temperature;BMP_pressure;BME280_temperature;BME280_humidity;BME280_pressure;Samples;Min_cycle;Max_cycle;Signal;HPM_P1;HPM_P2
2023/10/03 00:01:05;;;;;;;24.52;13.35;;;17.70;99.90;;;;;;4973683;28;20049;-93
2023/10/03 00:03:32;;;;;;;22.77;13.35;;;17.70;99.90;;;;;;4979251;28;20041;-92
2023/10/03 00:05:58;;;;;;;23.35;13.73;;;17.70;99.90;;;;;;4978550;28;20034;-93
2023/10/03 00:08:25;;;;;;;21.20;12.85;;;17.70;99.90;;;;;;4980573;28;20029;-92
2023/10/03 00:10:50;;;;;;;18.15;12.75;;;17.70;99.90;;;;;;4990545;28;20045;-93
2023/10/03 00:13:19;;;;;;;25.52;13.50;;;17.70;99.90;;;;;;4997501;28;20038;-93
2023/10/03 00:15:45;;;;;;;21.17;13.25;;;17.60;99.90;;;;;;4973565;28;20034;-93
2023/10/03 00:18:14;;;;;;;20.42;13.40;;;17.70;99.90;;;;;;4971753;28;20046;-93
2023/10/03 00:20:41;;;;;;;20.50;12.77;;;17.60;99.90;;;;;;4994410;28;20100;-93
2023/10/03 00:23:07;;;;;;;24.30;13.25;;;17.60;99.90;;;;;;4969520;28;20049;-92
2023/10/03 00:25:35;;;;;;;20.60;13.75;;;17.60;99.90;;;;;;4998382;28;20091;-93
2023/10/03 00:28:01;;;;;;;23.75;14.23;;;17.60;99.90;;;;;;4988136;28;20128;-93
2023/10/03 00:30:29;;;;;;;22.73;14.30;;;17.60;99.90;;;;;;4984535;28;20106;-92
2023/10/03 00:32:57;;;;;;;23.40;12.82;;;17.50;99.90;;;;;;4996075;28;20060;-93
2023/10/03 00:35:27;;;;;;;22.33;13.70;;;17.50;99.90;;;;;;4977569;28;20054;-93
2023/10/03 00:37:54;;;;;;;20.55;12.75;;;17.50;99.90;;;;;;4995523;28;20053;-93
2023/10/03 00:42:52;;;;;;;26.55;14.15;;;17.50;99.90;;;;;;4999518;28;20062;-93
2023/10/03 00:45:21;;;;;;;22.92;13.38;;;17.40;99.90;;;;;;5004103;28;20096;-93
2023/10/03 00:47:53;;;;;;;21.08;13.27;;;17.40;99.90;;;;;;5006959;28;20056;-93
2023/10/03 00:50:20;;;;;;;25.30;14.85;;;17.40;99.90;;;;;;4990112;28;20033;-93
2023/10/03 00:53:08;;;;;;;25.02;15.02;;;17.40;99.90;;;;;;4984524;28;20048;-93
2023/10/03 00:55:35;;;;;;;;;;;17.30;99.90;;;;;;5016937;28;20039;-93
2023/10/03 00:58:07;;;;;;;;;;;;;;;;;;;;;
2023/10/03 01:00:43;;;;;;;23.08;14.05;;;17.30;99.90;;;;;;5011086;28;20136;-93
2023/10/03 01:03:28;;;;;;;23.73;14.80;;;17.30;99.90;;;;;;5001339;28;20037;-93
2023/10/03 01:05:59;;;;;;;29.58;14.48;;;17.30;99.90;;;;;;5018174;28;20496;-93
2023/10/03 01:08:25;;;;;;;26.45;14.20;;;17.30;99.90;;;;;;5002339;28;20040;-93
2023/10/03 01:10:51;;;;;;;28.67;13.97;;;17.30;99.90;;;;;;4970019;28;20493;-94
2023/10/03 01:13:19;;;;;;;26.27;14.15;;;17.30;99.90;;;;;;4999003;28;20045;-95
2023/10/03 01:15:49;;;;;;;22.27;13.98;;;17.30;99.90;;;;;;5000836;28;20115;-93
2023/10/03 01:18:20;;;;;;;21.38;13.50;;;17.30;99.90;;;;;;4999190;28;20428;-92
2023/10/03 01:20:50;;;;;;;23.25;13.80;;;17.40;99.90;;;;;;5005255;28;20040;-93
2023/10/03 01:23:16;;;;;;;21.60;12.70;;;17.30;99.90;;;;;;4966014;28;20489;-94
2023/10/03 01:25:43;;;;;;;26.30;14.30;;;17.40;99.90;;;;;;4970484;28;20049;-93
2023/10/03 01:28:13;;;;;;;23.25;13.43;;;17.40;99.90;;;;;;5004258;28;20057;-93
2023/10/03 01:30:41;;;;;;;20.77;12.68;;;17.40;99.90;;;;;;5002224;28;20527;-93
2023/10/03 01:33:09;;;;;;;24.73;13.25;;;17.40;99.90;;;;;;5003306;28;20493;-93
2023/10/03 01:35:35;;;;;;;21.95;12.18;;;17.50;99.90;;;;;;5000484;28;20037;-93
2023/10/03 01:38:01;;;;;;;23.00;12.57;;;17.50;99.90;;;;;;4976146;28;20041;-93
2023/10/03 01:40:27;;;;;;;22.88;13.13;;;17.50;99.90;;;;;;4983579;28;20088;-93
2023/10/03 01:42:53;;;;;;;22.50;13.68;;;17.40;99.90;;;;;;4997037;28;20080;-93
2023/10/03 01:45:24;;;;;;;23.83;12.47;;;17.40;99.90;;;;;;4999586;28;20045;-93
2023/10/03 01:47:51;;;;;;;21.42;13.13;;;17.40;99.90;;;;;;4988951;28;20042;-93
2023/10/03 01:50:21;;;;;;;20.30;12.30;;;17.40;99.90;;;;;;4984672;28;20041;-93
2023/10/03 01:52:48;;;;;;;23.23;12.80;;;17.30;99.90;;;;;;4988766;28;20040;-93
2023/10/03 01:55:17;;;;;;;23.88;12.38;;;17.30;99.90;;;;;;5005027;28;20049;-93
2023/10/03 01:57:43;;;;;;;23.33;13.40;;;17.30;99.90;;;;;;5001063;28;20095;-93
2023/10/03 02:00:30;;;;;;;21.20;12.52;;;17.30;99.90;;;;;;4984341;28;20080;-93
2023/10/03 02:03:12;;;;;;;19.95;12.95;;;17.20;99.90;;;;;;4991852;28;20120;-94
2023/10/03 02:05:38;;;;;;;22.05;13.13;;;17.20;99.90;;;;;;5001540;28;20041;-94
2023/10/03 02:08:07;;;;;;;20.80;11.75;;;17.30;99.90;;;;;;4985747;28;20073;-93
2023/10/03 02:10:35;;;;;;;23.80;12.48;;;17.20;99.90;;;;;;4977374;28;20112;-93
2023/10/03 02:13:06;;;;;;;;;;;17.20;99.90;;;;;;5010960;28;20045;-93
2023/10/03 02:15:32;;;;;;;19.30;12.52;;;16.90;99.90;;;;;;4997403;28;20693;-93
2023/10/03 02:17:58;;;;;;;22.70;12.98;;;17.20;99.90;;;;;;4965647;28;20038;-93
2023/10/03 02:20:30;;;;;;;24.75;12.07;;;17.20;99.90;;;;;;4961836;28;20041;-93
2023/10/03 02:22:56;;;;;;;18.65;11.63;;;17.20;99.90;;;;;;4998342;28;20043;-92
2023/10/03 02:25:25;;;;;;;20.52;11.38;;;17.20;99.90;;;;;;4998666;28;20048;-93
2023/10/03 02:27:53;;;;;;;24.83;12.68;;;17.20;99.90;;;;;;4993932;28;20041;-93
2023/10/03 02:30:23;;;;;;;22.50;11.82;;;17.20;99.90;;;;;;5000095;28;20033;-92
2023/10/03 02:32:52;;;;;;;20.33;12.40;;;17.20;99.90;;;;;;4990153;28;20038;-92
2023/10/03 02:35:23;;;;;;;20.23;11.57;;;17.20;99.90;;;;;;4997789;28;20064;-93
2023/10/03 02:37:51;;;;;;;22.85;12.07;;;17.20;99.90;;;;;;4994620;28;20045;-93
2023/10/03 02:40:22;;;;;;;20.23;12.20;;;17.20;99.90;;;;;;5001066;28;20041;-92
2023/10/03 02:42:54;;;;;;;20.67;10.82;;;17.10;99.90;;;;;;4980381;28;20059;-93
2023/10/03 02:45:25;;;;;;;20.83;12.13;;;17.10;99.90;;;;;;4970354;28;20054;-93
2023/10/03 02:48:09;;;;;;;19.77;11.20;;;17.10;99.90;;;;;;4991484;28;20042;-93
2023/10/03 02:50:35;;;;;;;19.50;10.98;;;17.10;99.90;;;;;;5010762;28;20118;-92
2023/10/03 02:53:11;;;;;;;21.35;11.70;;;17.20;99.90;;;;;;4973162;28;20176;-93
2023/10/03 02:55:37;;;;;;;19.23;11.05;;;17.20;99.90;;;;;;4982696;28;20048;-90
2023/10/03 02:58:03;;;;;;;21.70;11.23;;;17.20;99.90;;;;;;4960317;28;20042;-92
2023/10/03 03:00:28;;;;;;;19.73;10.88;;;17.20;99.90;;;;;;4987434;28;20142;-92
2023/10/03 03:02:56;;;;;;;19.17;11.07;;;17.20;99.90;;;;;;4979304;28;20041;-93
2023/10/03 03:05:22;;;;;;;18.08;10.70;;;17.20;99.90;;;;;;4976102;28;20140;-93
2023/10/03 03:07:49;;;;;;;17.73;10.73;;;17.20;99.90;;;;;;4976606;28;20050;-94
2023/10/03 03:10:17;;;;;;;18.48;10.10;;;17.30;99.90;;;;;;4977448;28;20042;-93
2023/10/03 03:12:47;;;;;;;19.50;11.30;;;17.30;99.90;;;;;;5003348;28;20037;-93
2023/10/03 03:15:28;;;;;;;23.52;10.93;;;17.30;99.90;;;;;;4987107;28;20050;-92
2023/10/03 03:17:54;;;;;;;18.77;10.75;;;17.30;99.90;;;;;;5000137;28;20050;-93
2023/10/03 03:20:26;;;;;;;20.35;10.15;;;17.40;99.90;;;;;;4979799;28;20046;-94
2023/10/03 03:22:52;;;;;;;19.08;10.77;;;17.40;99.90;;;;;;4979727;28;20612;-93
2023/10/03 03:25:36;;;;;;;18.40;9.73;;;17.40;99.90;;;;;;4997021;28;20048;-91
2023/10/03 03:28:03;;;;;;;18.58;10.63;;;17.50;99.90;;;;;;4969419;28;20469;-93
2023/10/03 03:32:58;;;;;;;20.33;10.10;;;17.40;99.90;;;;;;5000566;28;20047;-93
2023/10/03 03:35:25;;;;;;;18.23;10.77;;;17.50;99.90;;;;;;4978127;28;20034;-92
2023/10/03 03:37:57;;;;;;;19.07;10.20;;;17.50;99.90;;;;;;4994985;28;20042;-93
2023/10/03 03:40:31;;;;;;;17.70;10.50;;;17.50;99.90;;;;;;4976147;28;20145;-93
2023/10/03 03:42:59;;;;;;;17.38;10.18;;;17.10;99.90;;;;;;4967001;28;20069;-92
2023/10/03 03:45:26;;;;;;;;;;;17.50;99.90;;;;;;4972790;28;20057;-92
2023/10/03 03:47:57;;;;;;;17.20;9.80;;;17.50;99.90;;;;;;4967834;28;19922;-92
2023/10/03 03:50:24;;;;;;;19.55;9.77;;;17.50;99.90;;;;;;4981298;28;20500;-91
2023/10/03 03:52:51;;;;;;;18.23;10.57;;;17.60;99.90;;;;;;4978508;28;20073;-92
2023/10/03 03:55:17;;;;;;;18.38;10.13;;;17.60;99.90;;;;;;4969977;28;20487;-92
2023/10/03 03:57:45;;;;;;;18.35;8.90;;;17.60;99.90;;;;;;4963423;28;20038;-92
2023/10/03 04:00:22;;;;;;;16.17;9.57;;;17.70;99.90;;;;;;4969111;28;20046;-92
2023/10/03 04:02:48;;;;;;;18.25;10.02;;;17.60;99.90;;;;;;4963478;28;20123;-92
2023/10/03 04:05:20;;;;;;;17.17;9.90;;;17.70;99.90;;;;;;4967179;28;20042;-92
2023/10/03 04:07:46;;;;;;;18.33;9.88;;;17.70;99.90;;;;;;4967665;28;20058;-92
2023/10/03 04:10:13;;;;;;;20.73;10.05;;;17.70;99.90;;;;;;4957284;28;20120;-92
2023/10/03 04:12:42;;;;;;;18.08;9.48;;;17.70;99.90;;;;;;4967483;28;20646;-93
2023/10/03 04:15:13;;;;;;;18.80;9.95;;;17.70;99.90;;;;;;4966697;28;20703;-92
2023/10/03 04:17:40;;;;;;;15.90;8.63;;;17.50;99.90;;;;;;4979344;28;20080;-92
2023/10/03 04:20:30;;;;;;;15.77;8.95;;;17.70;99.90;;;;;;4972572;28;20787;-93
2023/10/03 04:22:59;;;;;;;18.10;9.60;;;17.70;99.90;;;;;;4964508;28;20080;-93
2023/10/03 04:25:26;;;;;;;19.15;9.88;;;17.70;99.90;;;;;;4985017;28;20034;-92
2023/10/03 04:27:53;;;;;;;16.77;9.55;;;17.70;99.90;;;;;;4973841;28;20041;-92
2023/10/03 04:30:21;;;;;;;16.90;9.05;;;17.70;99.90;;;;;;4980602;28;20038;-92
2023/10/03 04:32:47;;;;;;;19.45;9.50;;;17.80;99.90;;;;;;4967308;28;20070;-93
2023/10/03 04:35:18;;;;;;;16.17;9.13;;;17.80;99.90;;;;;;4977661;28;20099;-93
2023/10/03 04:37:54;;;;;;;20.00;9.30;;;17.80;99.90;;;;;;4983689;28;20053;-93
2023/10/03 04:40:22;;;;;;;15.70;8.80;;;17.80;99.90;;;;;;4966629;28;20038;-92
2023/10/03 04:42:49;;;;;;;17.88;9.65;;;17.80;99.90;;;;;;4986278;28;21620;-92
2023/10/03 04:45:15;;;;;;;;;;;17.80;99.90;;;;;;4975629;28;20485;-94
2023/10/03 04:47:41;;;;;;;16.00;9.65;;;17.70;99.90;;;;;;4994726;28;19929;-93
2023/10/03 04:50:10;;;;;;;16.83;8.90;;;17.80;99.90;;;;;;4995490;28;20042;-91
2023/10/03 04:52:36;;;;;;;17.30;8.90;;;17.80;99.90;;;;;;4981682;28;20064;-92
2023/10/03 04:55:02;;;;;;;15.52;8.43;;;17.80;99.90;;;;;;4979040;28;20073;-91
2023/10/03 04:57:28;;;;;;;15.18;8.45;;;17.90;99.90;;;;;;4968777;28;20628;-92
2023/10/03 04:59:59;;;;;;;18.00;8.93;;;18.00;99.90;;;;;;4995878;28;20133;-92
2023/10/03 05:02:25;;;;;;;17.25;8.80;;;18.00;99.90;;;;;;4980616;28;20041;-92
2023/10/03 05:04:52;;;;;;;17.00;8.63;;;18.10;99.90;;;;;;4961648;28;20045;-92
2023/10/03 05:07:18;;;;;;;19.20;8.80;;;18.20;99.90;;;;;;4989459;28;20038;-91
2023/10/03 05:09:44;;;;;;;16.48;9.13;;;18.20;99.90;;;;;;4968626;28;20499;-90
2023/10/03 05:12:12;;;;;;;16.92;8.95;;;18.20;99.90;;;;;;5009191;28;20030;-94
2023/10/03 05:14:41;;;;;;;16.67;9.63;;;18.30;99.90;;;;;;4972507;28;20030;-91
2023/10/03 05:17:07;;;;;;;16.33;8.80;;;18.30;99.90;;;;;;4962859;28;20081;-94
2023/10/03 05:19:35;;;;;;;17.20;8.77;;;17.90;99.90;;;;;;4962772;28;20201;-92
2023/10/03 05:22:03;;;;;;;18.98;8.93;;;18.30;99.90;;;;;;4993738;28;20129;-93
2023/10/03 05:24:32;;;;;;;15.10;8.95;;;18.30;99.90;;;;;;4988855;28;20191;-91
2023/10/03 05:26:58;;;;;;;14.95;8.27;;;18.30;99.90;;;;;;4968813;28;20050;-93
2023/10/03 05:29:26;;;;;;;16.70;8.47;;;18.30;99.90;;;;;;4998867;28;20436;-93
2023/10/03 05:31:52;;;;;;;15.00;8.43;;;18.30;99.90;;;;;;4977046;28;20393;-94
2023/10/03 05:34:20;;;;;;;14.88;8.25;;;18.30;99.90;;;;;;4983617;28;20045;-92
2023/10/03 05:36:48;;;;;;;13.85;8.23;;;18.40;99.90;;;;;;4979767;28;20046;-92
2023/10/03 05:39:15;;;;;;;17.73;8.35;;;18.40;99.90;;;;;;4994821;28;20050;-93
2023/10/03 05:41:41;;;;;;;19.90;8.23;;;18.40;99.90;;;;;;5013487;28;20451;-91
2023/10/03 05:44:13;;;;;;;15.73;8.20;;;18.40;99.90;;;;;;4964583;28;20052;-91
2023/10/03 05:46:59;;;;;;;15.15;8.15;;;18.40;99.90;;;;;;4971002;28;20500;-94
2023/10/03 05:49:28;;;;;;;15.70;8.02;;;18.50;99.90;;;;;;4985401;28;20589;-93
2023/10/03 05:51:55;;;;;;;14.48;7.85;;;18.50;99.90;;;;;;4989318;28;20033;-93
2023/10/03 05:54:27;;;;;;;17.38;8.43;;;18.60;99.90;;;;;;4985463;28;20038;-92
2023/10/03 05:56:55;;;;;;;18.20;8.45;;;18.60;99.90;;;;;;5005463;28;20045;-93
2023/10/03 05:59:21;;;;;;;16.85;8.45;;;18.60;99.90;;;;;;4999078;28;20044;-94
2023/10/03 06:01:48;;;;;;;20.15;8.77;;;18.60;99.90;;;;;;5019806;28;20037;-92
2023/10/03 06:04:14;;;;;;;14.85;8.68;;;18.60;99.90;;;;;;4997922;28;20080;-95
2023/10/03 06:06:47;;;;;;;16.13;8.43;;;18.60;99.90;;;;;;5000815;28;20044;-96
2023/10/03 06:09:13;;;;;;;16.13;8.15;;;18.60;99.90;;;;;;5001848;28;20045;-96
2023/10/03 06:11:39;;;;;;;20.20;9.27;;;18.40;99.90;;;;;;5022999;28;20037;-94
2023/10/03 06:14:05;;;;;;;18.42;9.32;;;18.70;99.90;;;;;;4997275;28;20091;-95
2023/10/03 06:16:33;;;;;;;21.85;9.70;;;18.70;99.90;;;;;;4984383;28;20037;-94
2023/10/03 06:18:59;;;;;;;18.55;9.05;;;18.60;99.90;;;;;;4988851;28;20092;-93
2023/10/03 06:21:25;;;;;;;19.20;9.48;;;18.80;99.90;;;;;;4972517;28;20100;-94
2023/10/03 06:23:51;;;;;;;17.38;8.95;;;18.80;99.90;;;;;;4976833;28;20045;-94
2023/10/03 06:26:20;;;;;;;16.60;8.40;;;18.90;99.90;;;;;;4981677;28;20041;-94
2023/10/03 06:29:20;;;;;;;19.33;9.20;;;18.90;99.90;;;;;;4982142;28;20072;-93
2023/10/03 06:31:46;;;;;;;15.45;8.13;;;18.60;99.90;;;;;;4995614;28;20049;-94
2023/10/03 06:34:12;;;;;;;18.83;8.13;;;18.90;99.90;;;;;;4992721;28;20034;-93
2023/10/03 06:36:38;;;;;;;16.63;8.10;;;18.90;99.90;;;;;;4981979;28;20430;-93
2023/10/03 06:39:05;;;;;;;15.10;7.53;;;18.90;99.90;;;;;;4976173;28;20099;-95
2023/10/03 06:41:33;;;;;;;15.80;8.43;;;19.00;99.90;;;;;;4977999;28;20612;-94
2023/10/03 06:43:59;;;;;;;16.95;8.55;;;19.00;99.90;;;;;;4960180;28;20050;-94
2023/10/03 06:46:25;;;;;;;18.65;8.77;;;19.10;99.90;;;;;;4957725;28;20046;-94
2023/10/03 06:48:54;;;;;;;15.88;7.85;;;18.90;99.90;;;;;;4970860;28;20048;-94
2023/10/03 06:51:20;;;;;;;14.27;7.70;;;18.90;99.90;;;;;;4961452;28;20097;-94
2023/10/03 06:53:48;;;;;;;16.25;7.47;;;18.90;99.90;;;;;;4975139;28;20038;-93
2023/10/03 06:56:19;;;;;;;19.45;7.75;;;18.90;99.90;;;;;;4961414;28;20617;-94
2023/10/03 06:58:46;;;;;;;13.02;6.30;;;18.90;99.90;;;;;;4975586;28;20124;-94
2023/10/03 07:01:12;;;;;;;13.95;6.57;;;18.90;99.90;;;;;;4943736;28;20070;-94
2023/10/03 07:03:40;;;;;;;13.67;5.90;;;18.90;99.90;;;;;;4976826;28;20498;-94
2023/10/03 07:06:06;;;;;;;15.60;6.35;;;18.90;99.90;;;;;;4948267;28;20080;-94
2023/10/03 07:08:33;;;;;;;15.88;6.60;;;18.80;99.90;;;;;;4970729;28;20482;-93
2023/10/03 07:10:58;;;;;;;13.67;5.90;;;18.80;99.90;;;;;;4996248;28;20042;-94
2023/10/03 07:13:26;;;;;;;12.45;5.45;;;18.80;99.90;;;;;;4956427;28;20046;-94
2023/10/03 07:15:52;;;;;;;;;;;18.70;99.90;;;;;;4981198;28;20437;-94
2023/10/03 07:18:18;;;;;;;11.15;5.10;;;18.80;99.90;;;;;;4963345;28;19944;-94
2023/10/03 07:20:44;;;;;;;12.63;5.55;;;18.60;99.90;;;;;;4969455;28;20597;-94
2023/10/03 07:23:09;;;;;;;10.52;4.97;;;18.60;99.90;;;;;;4945787;28;20069;-94
2023/10/03 07:25:36;;;;;;;13.57;4.85;;;18.50;99.90;;;;;;4980724;28;20045;-93
2023/10/03 07:28:02;;;;;;;11.38;5.22;;;18.50;99.90;;;;;;4985675;28;20121;-94
2023/10/03 07:30:28;;;;;;;8.30;4.57;;;18.50;99.90;;;;;;4971649;28;20042;-93
2023/10/03 07:32:54;;;;;;;11.48;4.80;;;18.50;99.90;;;;;;4947809;28;20030;-94
2023/10/03 07:35:21;;;;;;;13.30;4.50;;;18.40;99.90;;;;;;4976795;28;20037;-93
2023/10/03 07:37:49;;;;;;;14.95;5.70;;;18.20;99.90;;;;;;4959058;28;20042;-93
2023/10/03 07:40:15;;;;;;;15.05;5.43;;;18.40;99.90;;;;;;4956712;28;20046;-94
2023/10/03 07:42:42;;;;;;;12.93;5.07;;;18.40;99.90;;;;;;4959813;28;20084;-94
2023/10/03 07:45:08;;;;;;;11.43;4.57;;;18.30;99.90;;;;;;4957641;28;20041;-93
2023/10/03 07:47:37;;;;;;;9.25;3.55;;;18.30;99.90;;;;;;4968505;28;20110;-92
2023/10/03 07:50:03;;;;;;;9.95;4.25;;;18.20;99.90;;;;;;5002069;28;20044;-93
2023/10/03 07:52:29;;;;;;;11.05;4.00;;;18.20;99.90;;;;;;4984879;28;20128;-93
2023/10/03 07:54:56;;;;;;;12.10;3.63;;;18.10;99.90;;;;;;4993758;28;20131;-92
2023/10/03 07:57:26;;;;;;;14.35;3.95;;;18.10;99.90;;;;;;5000571;28;20496;-92
2023/10/03 07:59:52;;;;;;;13.15;3.75;;;18.10;99.90;;;;;;4997313;28;20060;-93
2023/10/03 08:02:18;;;;;;;10.20;3.50;;;18.00;99.90;;;;;;4981384;28;20556;-93
2023/10/03 08:04:47;;;;;;;8.30;3.15;;;17.80;99.90;;;;;;4998454;28;20074;-94
2023/10/03 08:07:21;;;;;;;8.07;2.50;;;17.90;99.90;;;;;;4990867;28;20038;-94
2023/10/03 08:09:51;;;;;;;8.73;2.35;;;17.80;99.90;;;;;;4972918;28;20128;-94
2023/10/03 08:12:26;;;;;;;12.30;2.47;;;17.70;99.90;;;;;;4979330;28;20038;-93
2023/10/03 08:14:53;;;;;;;8.18;2.15;;;17.60;99.90;;;;;;4987657;28;20472;-93
2023/10/03 08:17:19;;;;;;;4.18;1.30;;;17.50;99.90;;;;;;4983285;28;20041;-94
2023/10/03 08:19:48;;;;;;;9.02;1.95;;;17.40;99.90;;;;;;4981143;28;20049;-93
2023/10/03 08:22:14;;;;;;;7.57;1.80;;;17.40;99.90;;;;;;5003263;28;20540;-92
2023/10/03 08:24:44;;;;;;;9.90;2.08;;;17.30;99.90;;;;;;5003496;28;20037;-94
2023/10/03 08:27:18;;;;;;;8.93;1.70;;;17.20;99.90;;;;;;5002828;28;20044;-93
2023/10/03 08:29:57;;;;;;;4.65;1.20;;;17.10;99.90;;;;;;4996869;28;20068;-92
2023/10/03 08:32:27;;;;;;;5.53;1.20;;;17.40;99.90;;;;;;4984690;28;20033;-94
2023/10/03 08:34:53;;;;;;;6.88;1.23;;;17.10;99.90;;;;;;4997877;28;20038;-93
2023/10/03 08:37:21;;;;;;;5.43;1.20;;;17.00;99.90;;;;;;4982628;28;21586;-93
2023/10/03 08:39:51;;;;;;;5.85;1.15;;;17.00;99.90;;;;;;4970391;28;20041;-94
2023/10/03 08:42:34;;;;;;;5.72;1.20;;;17.00;99.90;;;;;;4983338;28;20049;-93
2023/10/03 08:45:22;;;;;;;5.40;0.93;;;16.70;99.90;;;;;;5001544;28;20052;-93
2023/10/03 08:47:53;;;;;;;4.15;0.75;;;16.90;99.90;;;;;;4998209;28;20103;-94
2023/10/03 08:50:34;;;;;;;4.22;0.80;;;17.00;99.90;;;;;;5000666;28;20678;-95
2023/10/03 08:53:15;;;;;;;4.00;0.60;;;17.00;99.90;;;;;;4998533;28;20034;-95
2023/10/03 08:55:50;;;;;;;3.10;0.70;;;17.00;99.90;;;;;;5003402;28;20037;-94
2023/10/03 08:58:18;;;;;;;4.60;0.70;;;17.00;99.90;;;;;;5001509;28;20121;-95
2023/10/03 09:00:53;;;;;;;5.25;0.60;;;16.80;99.90;;;;;;5005851;28;20037;-94
2023/10/03 09:03:25;;;;;;;3.75;0.40;;;16.90;99.90;;;;;;5006939;28;20045;-96
2023/10/03 09:05:51;;;;;;;4.38;0.73;;;16.80;99.90;;;;;;4982889;28;20045;-95
2023/10/03 09:08:17;;;;;;;2.30;0.55;;;16.50;99.90;;;;;;5007334;28;20370;-94
2023/10/03 09:10:55;;;;;;;4.25;0.88;;;16.30;99.90;;;;;;5004605;28;20045;-94
2023/10/03 09:13:30;;;;;;;6.18;1.27;;;16.20;99.90;;;;;;4984564;28;20042;-94
2023/10/03 09:16:02;;;;;;;4.25;0.63;;;16.00;99.90;;;;;;4996611;28;20595;-94
2023/10/03 09:18:28;;;;;;;4.20;0.55;;;15.90;99.90;;;;;;5000431;28;20088;-95
2023/10/03 09:21:01;;;;;;;6.97;0.70;;;15.90;99.90;;;;;;5002567;28;20091;-94
2023/10/03 09:23:27;;;;;;;2.22;0.43;;;15.80;99.90;;;;;;5001690;28;20053;-94
2023/10/03 09:25:57;;;;;;;1.83;0.40;;;15.90;99.90;;;;;;5004732;28;20136;-95
2023/10/03 09:28:35;;;;;;;2.17;0.47;;;15.80;99.90;;;;;;4985678;28;20041;-94
2023/10/03 09:31:02;;;;;;;1.77;0.40;;;15.90;99.90;;;;;;5006865;28;20038;-94
2023/10/03 09:33:28;;;;;;;1.73;0.40;;;15.80;99.90;;;;;;4985283;28;20120;-95
2023/10/03 09:36:03;;;;;;;2.35;0.45;;;15.70;99.90;;;;;;4985219;28;20080;-94
2023/10/03 09:38:44;;;;;;;5.45;0.50;;;15.60;99.90;;;;;;4970286;28;20056;-93
2023/10/03 09:41:21;;;;;;;3.78;1.23;;;15.60;99.90;;;;;;4994917;28;20046;-93
2023/10/03 09:43:49;;;;;;;4.50;0.52;;;15.50;99.90;;;;;;4994923;28;20706;-92
2023/10/03 09:46:23;;;;;;;2.60;0.40;;;15.50;99.90;;;;;;4975392;28;20045;-95
2023/10/03 09:49:08;;;;;;;2.65;0.22;;;15.40;99.90;;;;;;4982154;28;20133;-94
2023/10/03 09:51:46;;;;;;;2.03;0.25;;;15.50;99.90;;;;;;4992158;28;20363;-94
2023/10/03 09:54:24;;;;;;;2.13;0.50;;;14.80;99.90;;;;;;4997216;28;20177;-93
2023/10/03 09:56:55;;;;;;;1.98;0.50;;;15.10;99.90;;;;;;4997708;28;20070;-93
2023/10/03 09:59:23;;;;;;;1.13;0.20;;;15.00;99.90;;;;;;4994518;28;20042;-94
2023/10/03 10:01:49;;;;;;;3.60;0.38;;;15.00;99.90;;;;;;4994329;28;20101;-95
2023/10/03 10:04:20;;;;;;;1.58;0.43;;;15.00;99.90;;;;;;4997330;28;20046;-94
2023/10/03 10:07:16;;;;;;;2.17;0.73;;;14.80;99.90;;;;;;4999925;28;20491;-95
2023/10/03 10:10:07;;;;;;;2.53;0.25;;;14.70;99.90;;;;;;5004587;28;20042;-94
2023/10/03 10:12:37;;;;;;;3.28;0.60;;;14.60;99.90;;;;;;4996093;28;20041;-94
2023/10/03 10:17:54;;;;;;;3.20;0.50;;;14.50;99.90;;;;;;5003297;28;20037;-94
2023/10/03 10:25:42;;;;;;;2.85;0.50;;;14.70;99.90;;;;;;5007787;28;20045;-91
2023/10/03 10:28:20;;;;;;;2.70;0.40;;;14.80;99.90;;;;;;4982621;28;20049;-93
2023/10/03 10:31:15;;;;;;;3.40;0.40;;;14.80;99.90;;;;;;4999285;28;20050;-93
2023/10/03 10:33:42;;;;;;;3.30;0.40;;;14.90;99.90;;;;;;4976265;28;20121;-94
2023/10/03 10:36:10;;;;;;;1.60;0.30;;;14.90;99.90;;;;;;4996080;28;20076;-93
2023/10/03 10:38:36;;;;;;;2.80;0.82;;;14.90;99.90;;;;;;4981046;28;20046;-92
2023/10/03 10:41:17;;;;;;;3.55;0.65;;;14.90;99.90;;;;;;4998829;28;20041;-94
2023/10/03 10:44:16;;;;;;;5.70;0.70;;;15.00;99.90;;;;;;5000586;28;20089;-94
2023/10/03 10:46:47;;;;;;;2.78;0.70;;;15.10;99.90;;;;;;4991107;28;20071;-93
2023/10/03 10:49:31;;;;;;;4.57;1.10;;;15.10;99.90;;;;;;4996145;28;20085;-94
2023/10/03 10:52:01;;;;;;;4.60;1.00;;;15.10;99.90;;;;;;4997630;28;20034;-94
2023/10/03 10:54:31;;;;;;;5.97;1.77;;;15.20;99.90;;;;;;4974814;28;20493;-93
2023/10/03 10:57:05;;;;;;;5.00;1.20;;;15.20;99.90;;;;;;4996309;28;20133;-94
2023/10/03 10:59:36;;;;;;;5.30;1.20;;;15.20;99.90;;;;;;4976745;28;20081;-94
2023/10/03 11:02:04;;;;;;;5.78;1.15;;;15.30;99.90;;;;;;4994818;28;20107;-93
2023/10/03 11:04:33;;;;;;;8.75;1.80;;;15.40;99.90;;;;;;4997213;28;20131;-94
2023/10/03 11:06:59;;;;;;;6.32;1.35;;;15.40;99.90;;;;;;4971436;28;20046;-93
2023/10/03 11:09:25;;;;;;;6.35;1.88;;;15.00;99.90;;;;;;4980696;28;20400;-94
2023/10/03 11:11:51;;;;;;;3.70;1.50;;;15.50;99.90;;;;;;4977932;28;20039;-94
2023/10/03 11:14:31;;;;;;;3.80;1.63;;;15.50;99.90;;;;;;4996602;28;20081;-94
2023/10/03 11:17:01;;;;;;;5.97;1.38;;;15.30;99.90;;;;;;4993447;28;20050;-93
2023/10/03 11:19:31;;;;;;;5.47;1.30;;;15.40;99.90;;;;;;4996903;28;20048;-93
2023/10/03 11:21:57;;;;;;;6.57;1.52;;;15.40;99.90;;;;;;4965671;28;20042;-96
2023/10/03 11:24:23;;;;;;;5.75;1.52;;;15.30;99.90;;;;;;4996449;28;20121;-94
2023/10/03 11:26:58;;;;;;;5.07;1.40;;;15.40;99.90;;;;;;4996030;28;20439;-94
2023/10/03 11:29:50;;;;;;;6.38;1.60;;;15.30;99.90;;;;;;4996170;28;20478;-94
2023/10/03 11:32:17;;;;;;;6.70;1.92;;;15.40;99.90;;;;;;4997899;28;20038;-94
2023/10/03 11:34:43;;;;;;;3.88;1.25;;;15.40;99.90;;;;;;4980785;28;20092;-95
2023/10/03 11:37:09;;;;;;;6.53;1.40;;;15.40;99.90;;;;;;4996415;28;20516;-94
2023/10/03 11:39:38;;;;;;;4.43;1.27;;;15.40;99.90;;;;;;4980332;28;20042;-93
2023/10/03 11:42:54;;;;;;;5.30;1.30;;;15.30;99.90;;;;;;4999394;28;20054;-94
2023/10/03 11:45:24;;;;;;;5.07;1.48;;;15.40;99.90;;;;;;4964985;28;20047;-93
2023/10/03 11:48:10;;;;;;;3.67;1.35;;;15.50;99.90;;;;;;4972411;28;20045;-94
2023/10/03 11:50:43;;;;;;;6.88;1.52;;;15.50;99.90;;;;;;5002352;28;20150;-94
2023/10/03 11:53:08;;;;;;;7.28;1.40;;;15.50;99.90;;;;;;4988288;28;20033;-93
2023/10/03 11:55:36;;;;;;;6.18;1.42;;;15.50;99.90;;;;;;4999149;28;20167;-94
2023/10/03 11:58:06;;;;;;;4.15;1.40;;;15.50;99.90;;;;;;4999872;28;20356;-94
2023/10/03 12:00:32;;;;;;;8.02;1.38;;;15.60;99.90;;;;;;5003035;28;20064;-94
2023/10/03 12:02:59;;;;;;;4.30;1.37;;;15.50;99.90;;;;;;4999388;28;20077;-93
2023/10/03 12:05:27;;;;;;;7.40;1.60;;;15.50;99.90;;;;;;5001445;28;20045;-95
2023/10/03 12:07:56;;;;;;;4.40;1.20;;;15.50;99.90;;;;;;5000387;28;20052;-95
2023/10/03 12:10:30;;;;;;;4.53;1.30;;;15.50;99.90;;;;;;5002077;28;20341;-94
2023/10/03 12:12:56;;;;;;;4.15;1.30;;;15.50;99.90;;;;;;4999791;28;20061;-94
2023/10/03 12:15:23;;;;;;;4.70;1.00;;;15.80;99.90;;;;;;5002517;28;20134;-95
2023/10/03 12:17:50;;;;;;;3.78;1.95;;;15.40;99.90;;;;;;4998299;28;20037;-95
2023/10/03 12:20:18;;;;;;;6.80;1.20;;;15.20;99.90;;;;;;4982789;28;20052;-93
2023/10/03 12:22:52;;;;;;;5.80;1.58;;;15.50;99.90;;;;;;5001998;28;20049;-93
2023/10/03 12:25:21;;;;;;;6.10;1.38;;;14.80;99.90;;;;;;4999516;28;20623;-94
2023/10/03 12:27:50;;;;;;;5.05;1.52;;;14.60;99.90;;;;;;4995156;28;20045;-93
2023/10/03 12:30:17;;;;;;;8.07;1.17;;;14.60;99.90;;;;;;4966892;28;20092;-95
2023/10/03 12:32:47;;;;;;;3.83;1.30;;;14.50;99.90;;;;;;4982564;28;20463;-93
2023/10/03 12:35:14;;;;;;;10.02;1.65;;;14.50;99.90;;;;;;4991074;28;20072;-93
2023/10/03 12:37:46;;;;;;;4.05;1.30;;;14.50;99.90;;;;;;4999036;28;20052;-93
2023/10/03 12:40:48;;;;;;;8.13;1.42;;;14.50;99.90;;;;;;5017174;28;20045;-94
2023/10/03 12:43:22;;;;;;;6.50;1.48;;;14.50;99.90;;;;;;4983911;28;20054;-93
2023/10/03 12:45:53;;;;;;;9.50;1.60;;;14.70;99.90;;;;;;4979503;28;20459;-94
2023/10/03 12:48:19;;;;;;;5.30;1.40;;;14.80;99.90;;;;;;4988663;28;20524;-93
2023/10/03 12:50:45;;;;;;;10.02;1.70;;;14.90;99.90;;;;;;4995107;28;20465;-94
2023/10/03 12:53:11;;;;;;;4.88;1.33;;;14.90;99.90;;;;;;4994261;28;20046;-93
2023/10/03 12:55:38;;;;;;;4.93;1.27;;;15.10;99.90;;;;;;4994319;28;20124;-94
2023/10/03 12:58:04;;;;;;;4.70;1.30;;;15.10;99.90;;;;;;4989822;28;20053;-94
2023/10/03 13:00:29;;;;;;;5.30;1.40;;;15.20;99.90;;;;;;4986134;28;20042;-93
2023/10/03 13:02:57;;;;;;;5.85;1.40;;;15.20;99.90;;;;;;4986930;28;20042;-93
2023/10/03 13:05:23;;;;;;;6.32;1.05;;;15.20;99.90;;;;;;4971252;28;20080;-93
2023/10/03 13:07:50;;;;;;;6.30;1.50;;;15.30;99.90;;;;;;4986414;28;20134;-94